sensor_id;sensor_type;location;lat;lon;timestamp;P1;durP1;ratioP1;P2;durP2;ratioP2
42972;SDS011;28610;51.214;6.962;2023-04-25T00:00:12;21.03;;;7.10;;
42972;SDS011;28610;51.214;6.962;2023-04-25T00:02:58;19.50;;;6.90;;
42972;SDS011;28610;51.214;6.962;2023-04-25T00:05:43;19.40;;;6.97;;
42972;SDS011;28610;51.214;6.962;2023-04-25T00:08:30;18.80;;;6.77;;
42972;SDS011;28610;51.214;6.962;2023-04-25T00:11:16;24.70;;;7.30;;
42972;SDS011;28610;51.214;6.962;2023-04-25T00:14:02;21.03;;;6.80;;
42972;SDS011;28610;51.214;6.962;2023-04-25T00:16:48;17.47;;;7.07;;
42972;SDS011;28610;51.214;6.962;2023-04-25T00:19:35;21.50;;;7.10;;
42972;SDS011;28610;51.214;6.962;2023-04-25T00:22:21;20.87;;;6.87;;
42972;SDS011;28610;51.214;6.962;2023-04-25T00:25:08;21.50;;;7.50;;
42972;SDS011;28610;51.214;6.962;2023-04-25T00:27:54;27.43;;;7.50;;
42972;SDS011;28610;51.214;6.962;2023-04-25T00:30:40;20.10;;;7.13;;
42972;SDS011;28610;51.214;6.962;2023-04-25T00:33:26;22.30;;;7.90;;
42972;SDS011;28610;51.214;6.962;2023-04-25T00:36:11;18.83;;;7.30;;
42972;SDS011;28610;51.214;6.962;2023-04-25T00:38:57;26.40;;;7.07;;
42972;SDS011;28610;51.214;6.962;2023-04-25T00:41:44;17.53;;;6.80;;
42972;SDS011;28610;51.214;6.962;2023-04-25T00:44:30;21.90;;;7.30;;
42972;SDS011;28610;51.214;6.962;2023-04-25T00:47:16;27.43;;;7.60;;
42972;SDS011;28610;51.214;6.962;2023-04-25T00:50:02;20.00;;;7.13;;
42972;SDS011;28610;51.214;6.962;2023-04-25T00:52:48;19.30;;;6.93;;
42972;SDS011;28610;51.214;6.962;2023-04-25T00:55:34;20.63;;;6.63;;
42972;SDS011;28610;51.214;6.962;2023-04-25T00:58:21;18.53;;;7.10;;
42972;SDS011;28610;51.214;6.962;2023-04-25T01:01:07;20.77;;;6.57;;
42972;SDS011;28610;51.214;6.962;2023-04-25T01:03:53;15.40;;;6.97;;
42972;SDS011;28610;51.214;6.962;2023-04-25T01:06:39;15.53;;;6.30;;
42972;SDS011;28610;51.214;6.962;2023-04-25T01:09:25;16.03;;;6.63;;
42972;SDS011;28610;51.214;6.962;2023-04-25T01:12:11;18.17;;;6.87;;
42972;SDS011;28610;51.214;6.962;2023-04-25T01:14:59;16.33;;;5.97;;
42972;SDS011;28610;51.214;6.962;2023-04-25T01:17:45;26.40;;;7.40;;
42972;SDS011;28610;51.214;6.962;2023-04-25T01:20:33;20.43;;;6.50;;
42972;SDS011;28610;51.214;6.962;2023-04-25T01:23:20;17.63;;;6.63;;
42972;SDS011;28610;51.214;6.962;2023-04-25T01:26:06;20.67;;;7.03;;
42972;SDS011;28610;51.214;6.962;2023-04-25T01:28:53;20.30;;;6.67;;
42972;SDS011;28610;51.214;6.962;2023-04-25T01:31:39;20.37;;;7.57;;
42972;SDS011;28610;51.214;6.962;2023-04-25T01:34:25;19.27;;;7.47;;
42972;SDS011;28610;51.214;6.962;2023-04-25T01:37:10;19.70;;;6.90;;
42972;SDS011;28610;51.214;6.962;2023-04-25T01:39:57;17.77;;;6.77;;
42972;SDS011;28610;51.214;6.962;2023-04-25T01:42:43;17.70;;;6.67;;
42972;SDS011;28610;51.214;6.962;2023-04-25T01:45:29;19.03;;;6.57;;
42972;SDS011;28610;51.214;6.962;2023-04-25T01:48:14;18.67;;;6.67;;
42972;SDS011;28610;51.214;6.962;2023-04-25T01:51:00;18.53;;;6.63;;
42972;SDS011;28610;51.214;6.962;2023-04-25T01:53:45;17.53;;;6.80;;
42972;SDS011;28610;51.214;6.962;2023-04-25T01:56:32;15.50;;;6.17;;
42972;SDS011;28610;51.214;6.962;2023-04-25T01:59:18;17.87;;;6.37;;
42972;SDS011;28610;51.214;6.962;2023-04-25T02:02:05;14.80;;;7.00;;
42972;SDS011;28610;51.214;6.962;2023-04-25T02:04:50;15.53;;;6.60;;
42972;SDS011;28610;51.214;6.962;2023-04-25T02:07:37;20.63;;;6.93;;
42972;SDS011;28610;51.214;6.962;2023-04-25T02:10:23;20.47;;;7.60;;
42972;SDS011;28610;51.214;6.962;2023-04-25T02:13:10;20.03;;;6.87;;
42972;SDS011;28610;51.214;6.962;2023-04-25T02:15:55;17.37;;;7.00;;
42972;SDS011;28610;51.214;6.962;2023-04-25T02:18:41;18.87;;;6.43;;
42972;SDS011;28610;51.214;6.962;2023-04-25T02:21:28;17.50;;;6.53;;
42972;SDS011;28610;51.214;6.962;2023-04-25T02:24:14;18.50;;;7.13;;
42972;SDS011;28610;51.214;6.962;2023-04-25T02:26:59;18.37;;;7.10;;
42972;SDS011;28610;51.214;6.962;2023-04-25T02:29:46;13.87;;;7.03;;
42972;SDS011;28610;51.214;6.962;2023-04-25T02:32:32;14.93;;;7.10;;
42972;SDS011;28610;51.214;6.962;2023-04-25T02:35:18;21.43;;;7.37;;
42972;SDS011;28610;51.214;6.962;2023-04-25T02:38:04;17.37;;;6.70;;
42972;SDS011;28610;51.214;6.962;2023-04-25T02:40:49;18.80;;;7.20;;
42972;SDS011;28610;51.214;6.962;2023-04-25T02:43:35;18.77;;;7.43;;
42972;SDS011;28610;51.214;6.962;2023-04-25T02:46:22;18.17;;;7.97;;
42972;SDS011;28610;51.214;6.962;2023-04-25T02:49:08;20.37;;;7.30;;
42972;SDS011;28610;51.214;6.962;2023-04-25T02:51:53;18.23;;;7.10;;
42972;SDS011;28610;51.214;6.962;2023-04-25T02:54:39;18.97;;;7.40;;
42972;SDS011;28610;51.214;6.962;2023-04-25T02:57:25;14.07;;;6.47;;
42972;SDS011;28610;51.214;6.962;2023-04-25T03:00:11;18.43;;;7.50;;
42972;SDS011;28610;51.214;6.962;2023-04-25T03:02:59;16.87;;;6.93;;
42972;SDS011;28610;51.214;6.962;2023-04-25T03:05:44;16.63;;;7.00;;
42972;SDS011;28610;51.214;6.962;2023-04-25T03:08:30;22.47;;;7.53;;
42972;SDS011;28610;51.214;6.962;2023-04-25T03:11:18;18.50;;;6.60;;
42972;SDS011;28610;51.214;6.962;2023-04-25T03:14:04;17.97;;;6.60;;
42972;SDS011;28610;51.214;6.962;2023-04-25T03:16:49;12.03;;;6.53;;
42972;SDS011;28610;51.214;6.962;2023-04-25T03:19:36;23.03;;;7.57;;
42972;SDS011;28610;51.214;6.962;2023-04-25T03:22:22;20.77;;;6.63;;
42972;SDS011;28610;51.214;6.962;2023-04-25T03:25:07;17.90;;;6.13;;
42972;SDS011;28610;51.214;6.962;2023-04-25T03:27:53;14.90;;;6.43;;
42972;SDS011;28610;51.214;6.962;2023-04-25T03:30:39;16.63;;;6.53;;
42972;SDS011;28610;51.214;6.962;2023-04-25T03:33:24;19.10;;;6.60;;
42972;SDS011;28610;51.214;6.962;2023-04-25T03:36:11;17.87;;;6.77;;
42972;SDS011;28610;51.214;6.962;2023-04-25T03:38:57;14.00;;;6.90;;
42972;SDS011;28610;51.214;6.962;2023-04-25T03:41:42;21.93;;;7.40;;
42972;SDS011;28610;51.214;6.962;2023-04-25T03:44:28;19.40;;;7.13;;
42972;SDS011;28610;51.214;6.962;2023-04-25T03:47:14;17.03;;;8.00;;
42972;SDS011;28610;51.214;6.962;2023-04-25T03:49:59;17.97;;;7.40;;
42972;SDS011;28610;51.214;6.962;2023-04-25T03:52:47;22.07;;;7.93;;
42972;SDS011;28610;51.214;6.962;2023-04-25T03:55:33;24.17;;;7.90;;
42972;SDS011;28610;51.214;6.962;2023-04-25T03:58:18;25.13;;;8.60;;
42972;SDS011;28610;51.214;6.962;2023-04-25T04:01:04;20.80;;;8.57;;
42972;SDS011;28610;51.214;6.962;2023-04-25T04:03:51;21.97;;;8.33;;
42972;SDS011;28610;51.214;6.962;2023-04-25T04:06:36;22.43;;;8.70;;
42972;SDS011;28610;51.214;6.962;2023-04-25T04:09:23;19.37;;;8.10;;
42972;SDS011;28610;51.214;6.962;2023-04-25T04:12:09;23.20;;;8.50;;
42972;SDS011;28610;51.214;6.962;2023-04-25T04:14:55;24.67;;;8.50;;
42972;SDS011;28610;51.214;6.962;2023-04-25T04:17:41;24.53;;;8.43;;
42972;SDS011;28610;51.214;6.962;2023-04-25T04:20:26;19.30;;;8.87;;
42972;SDS011;28610;51.214;6.962;2023-04-25T04:23:12;24.07;;;9.20;;
42972;SDS011;28610;51.214;6.962;2023-04-25T04:25:59;22.40;;;9.30;;
42972;SDS011;28610;51.214;6.962;2023-04-25T04:28:45;28.00;;;8.87;;
42972;SDS011;28610;51.214;6.962;2023-04-25T04:31:31;25.97;;;8.37;;
42972;SDS011;28610;51.214;6.962;2023-04-25T04:34:16;22.83;;;9.17;;
42972;SDS011;28610;51.214;6.962;2023-04-25T04:37:02;24.80;;;8.50;;
42972;SDS011;28610;51.214;6.962;2023-04-25T04:39:48;26.17;;;9.53;;
42972;SDS011;28610;51.214;6.962;2023-04-25T04:42:36;28.07;;;9.53;;
42972;SDS011;28610;51.214;6.962;2023-04-25T04:45:22;26.00;;;9.40;;
42972;SDS011;28610;51.214;6.962;2023-04-25T04:48:07;24.73;;;8.90;;
42972;SDS011;28610;51.214;6.962;2023-04-25T04:50:55;20.70;;;8.77;;
42972;SDS011;28610;51.214;6.962;2023-04-25T04:53:41;28.93;;;8.93;;
42972;SDS011;28610;51.214;6.962;2023-04-25T04:56:26;31.33;;;8.90;;
42972;SDS011;28610;51.214;6.962;2023-04-25T04:59:14;19.60;;;8.30;;
42972;SDS011;28610;51.214;6.962;2023-04-25T05:01:59;28.30;;;9.37;;
42972;SDS011;28610;51.214;6.962;2023-04-25T05:04:45;26.77;;;9.20;;
42972;SDS011;28610;51.214;6.962;2023-04-25T05:07:30;22.40;;;9.07;;
42972;SDS011;28610;51.214;6.962;2023-04-25T05:10:16;29.20;;;9.03;;
42972;SDS011;28610;51.214;6.962;2023-04-25T05:13:02;29.10;;;8.80;;
42972;SDS011;28610;51.214;6.962;2023-04-25T05:15:48;32.97;;;9.20;;
42972;SDS011;28610;51.214;6.962;2023-04-25T05:18:34;27.67;;;9.07;;
42972;SDS011;28610;51.214;6.962;2023-04-25T05:21:19;22.70;;;9.33;;
42972;SDS011;28610;51.214;6.962;2023-04-25T05:24:06;26.10;;;8.63;;
42972;SDS011;28610;51.214;6.962;2023-04-25T05:26:51;26.97;;;8.97;;
42972;SDS011;28610;51.214;6.962;2023-04-25T05:29:37;24.67;;;9.97;;
42972;SDS011;28610;51.214;6.962;2023-04-25T05:32:24;18.63;;;7.97;;
42972;SDS011;28610;51.214;6.962;2023-04-25T05:35:09;24.30;;;8.97;;
42972;SDS011;28610;51.214;6.962;2023-04-25T05:37:55;25.57;;;8.13;;
42972;SDS011;28610;51.214;6.962;2023-04-25T05:40:40;21.97;;;7.87;;
42972;SDS011;28610;51.214;6.962;2023-04-25T05:43:26;26.93;;;8.20;;
42972;SDS011;28610;51.214;6.962;2023-04-25T05:46:12;26.70;;;8.20;;
42972;SDS011;28610;51.214;6.962;2023-04-25T05:48:59;25.97;;;8.40;;
42972;SDS011;28610;51.214;6.962;2023-04-25T05:51:44;24.77;;;8.70;;
42972;SDS011;28610;51.214;6.962;2023-04-25T05:54:30;32.30;;;8.90;;
42972;SDS011;28610;51.214;6.962;2023-04-25T05:57:19;27.27;;;8.50;;
42972;SDS011;28610;51.214;6.962;2023-04-25T06:00:06;27.10;;;8.50;;
42972;SDS011;28610;51.214;6.962;2023-04-25T06:02:52;28.07;;;8.73;;
42972;SDS011;28610;51.214;6.962;2023-04-25T06:05:39;24.77;;;7.93;;
42972;SDS011;28610;51.214;6.962;2023-04-25T06:08:25;22.87;;;8.13;;
42972;SDS011;28610;51.214;6.962;2023-04-25T06:11:11;30.90;;;8.53;;
42972;SDS011;28610;51.214;6.962;2023-04-25T06:13:56;26.37;;;8.03;;
42972;SDS011;28610;51.214;6.962;2023-04-25T06:16:42;27.73;;;7.90;;
42972;SDS011;28610;51.214;6.962;2023-04-25T06:19:27;29.30;;;8.57;;
42972;SDS011;28610;51.214;6.962;2023-04-25T06:22:14;24.63;;;7.60;;
42972;SDS011;28610;51.214;6.962;2023-04-25T06:25:00;29.63;;;7.27;;
42972;SDS011;28610;51.214;6.962;2023-04-25T06:27:47;23.17;;;7.87;;
42972;SDS011;28610;51.214;6.962;2023-04-25T06:30:33;28.20;;;8.00;;
42972;SDS011;28610;51.214;6.962;2023-04-25T06:33:18;20.87;;;6.90;;
42972;SDS011;28610;51.214;6.962;2023-04-25T06:36:05;25.37;;;6.20;;
42972;SDS011;28610;51.214;6.962;2023-04-25T06:38:52;18.93;;;6.13;;
42972;SDS011;28610;51.214;6.962;2023-04-25T06:41:38;17.93;;;5.77;;
42972;SDS011;28610;51.214;6.962;2023-04-25T06:44:23;23.07;;;6.33;;
42972;SDS011;28610;51.214;6.962;2023-04-25T06:47:09;18.37;;;5.83;;
42972;SDS011;28610;51.214;6.962;2023-04-25T06:49:55;22.10;;;5.83;;
42972;SDS011;28610;51.214;6.962;2023-04-25T06:52:40;21.80;;;5.73;;
42972;SDS011;28610;51.214;6.962;2023-04-25T06:55:27;17.70;;;5.80;;
42972;SDS011;28610;51.214;6.962;2023-04-25T06:58:13;24.40;;;6.00;;
42972;SDS011;28610;51.214;6.962;2023-04-25T07:00:58;22.40;;;5.90;;
42972;SDS011;28610;51.214;6.962;2023-04-25T07:03:44;20.50;;;6.00;;
42972;SDS011;28610;51.214;6.962;2023-04-25T07:06:29;21.60;;;5.87;;
42972;SDS011;28610;51.214;6.962;2023-04-25T07:09:15;21.43;;;6.20;;
42972;SDS011;28610;51.214;6.962;2023-04-25T07:12:02;22.03;;;6.07;;
42972;SDS011;28610;51.214;6.962;2023-04-25T07:14:48;20.17;;;6.60;;
42972;SDS011;28610;51.214;6.962;2023-04-25T07:17:33;20.63;;;5.67;;
42972;SDS011;28610;51.214;6.962;2023-04-25T07:20:19;17.53;;;5.30;;
42972;SDS011;28610;51.214;6.962;2023-04-25T07:23:05;19.00;;;5.47;;
42972;SDS011;28610;51.214;6.962;2023-04-25T07:25:50;18.83;;;5.30;;
42972;SDS011;28610;51.214;6.962;2023-04-25T07:28:37;18.80;;;4.97;;
42972;SDS011;28610;51.214;6.962;2023-04-25T07:31:23;22.53;;;5.40;;
42972;SDS011;28610;51.214;6.962;2023-04-25T07:34:09;23.37;;;5.83;;
42972;SDS011;28610;51.214;6.962;2023-04-25T07:36:55;22.30;;;5.57;;
42972;SDS011;28610;51.214;6.962;2023-04-25T07:39:40;16.03;;;5.17;;
42972;SDS011;28610;51.214;6.962;2023-04-25T07:42:26;17.27;;;5.03;;
42972;SDS011;28610;51.214;6.962;2023-04-25T07:45:12;21.00;;;5.83;;
42972;SDS011;28610;51.214;6.962;2023-04-25T07:47:58;15.77;;;4.67;;
42972;SDS011;28610;51.214;6.962;2023-04-25T07:50:44;15.67;;;5.00;;
42972;SDS011;28610;51.214;6.962;2023-04-25T07:53:29;17.10;;;4.70;;
42972;SDS011;28610;51.214;6.962;2023-04-25T07:56:15;23.60;;;4.60;;
42972;SDS011;28610;51.214;6.962;2023-04-25T07:59:01;22.13;;;4.90;;
42972;SDS011;28610;51.214;6.962;2023-04-25T08:01:48;16.43;;;5.30;;
42972;SDS011;28610;51.214;6.962;2023-04-25T08:04:34;21.70;;;5.97;;
42972;SDS011;28610;51.214;6.962;2023-04-25T08:07:19;15.87;;;4.53;;
42972;SDS011;28610;51.214;6.962;2023-04-25T08:10:05;19.07;;;4.50;;
42972;SDS011;28610;51.214;6.962;2023-04-25T08:12:51;19.60;;;4.83;;
42972;SDS011;28610;51.214;6.962;2023-04-25T08:15:36;15.63;;;4.90;;
42972;SDS011;28610;51.214;6.962;2023-04-25T08:18:24;18.33;;;4.77;;
42972;SDS011;28610;51.214;6.962;2023-04-25T08:21:09;18.90;;;4.70;;
42972;SDS011;28610;51.214;6.962;2023-04-25T08:23:55;18.30;;;4.53;;
42972;SDS011;28610;51.214;6.962;2023-04-25T08:26:42;16.47;;;4.27;;
42972;SDS011;28610;51.214;6.962;2023-04-25T08:29:27;16.63;;;4.20;;
42972;SDS011;28610;51.214;6.962;2023-04-25T08:32:13;16.27;;;4.00;;
42972;SDS011;28610;51.214;6.962;2023-04-25T08:35:00;18.23;;;4.60;;
42972;SDS011;28610;51.214;6.962;2023-04-25T08:37:46;18.23;;;4.10;;
42972;SDS011;28610;51.214;6.962;2023-04-25T08:40:32;13.60;;;4.40;;
42972;SDS011;28610;51.214;6.962;2023-04-25T08:43:19;13.90;;;4.40;;
42972;SDS011;28610;51.214;6.962;2023-04-25T08:46:05;17.73;;;4.73;;
42972;SDS011;28610;51.214;6.962;2023-04-25T08:48:51;15.73;;;4.97;;
42972;SDS011;28610;51.214;6.962;2023-04-25T08:51:44;13.13;;;4.80;;
42972;SDS011;28610;51.214;6.962;2023-04-25T08:54:30;16.63;;;4.90;;
42972;SDS011;28610;51.214;6.962;2023-04-25T08:57:15;13.87;;;5.10;;
42972;SDS011;28610;51.214;6.962;2023-04-25T09:00:02;17.20;;;5.17;;
42972;SDS011;28610;51.214;6.962;2023-04-25T09:02:48;13.33;;;5.20;;
42972;SDS011;28610;51.214;6.962;2023-04-25T09:05:34;13.77;;;4.80;;
42972;SDS011;28610;51.214;6.962;2023-04-25T09:08:22;17.30;;;4.77;;
42972;SDS011;28610;51.214;6.962;2023-04-25T09:11:07;15.20;;;4.53;;
42972;SDS011;28610;51.214;6.962;2023-04-25T09:13:54;16.67;;;4.23;;
42972;SDS011;28610;51.214;6.962;2023-04-25T09:16:59;12.47;;;4.20;;
42972;SDS011;28610;51.214;6.962;2023-04-25T09:19:44;14.13;;;4.60;;
42972;SDS011;28610;51.214;6.962;2023-04-25T09:22:30;13.37;;;4.10;;
42972;SDS011;28610;51.214;6.962;2023-04-25T09:25:17;13.93;;;4.20;;
42972;SDS011;28610;51.214;6.962;2023-04-25T09:28:04;14.73;;;4.00;;
42972;SDS011;28610;51.214;6.962;2023-04-25T09:30:49;14.80;;;3.80;;
42972;SDS011;28610;51.214;6.962;2023-04-25T09:33:40;14.00;;;4.47;;
42972;SDS011;28610;51.214;6.962;2023-04-25T09:36:26;15.73;;;4.77;;
42972;SDS011;28610;51.214;6.962;2023-04-25T09:39:12;14.00;;;4.37;;
42972;SDS011;28610;51.214;6.962;2023-04-25T09:42:01;14.53;;;4.10;;
42972;SDS011;28610;51.214;6.962;2023-04-25T09:44:48;17.00;;;4.13;;
42972;SDS011;28610;51.214;6.962;2023-04-25T09:47:36;12.83;;;3.83;;
42972;SDS011;28610;51.214;6.962;2023-04-25T09:50:22;13.67;;;4.07;;
42972;SDS011;28610;51.214;6.962;2023-04-25T09:53:08;18.73;;;4.77;;
42972;SDS011;28610;51.214;6.962;2023-04-25T09:55:54;15.37;;;4.83;;
42972;SDS011;28610;51.214;6.962;2023-04-25T09:58:42;15.77;;;3.90;;
42972;SDS011;28610;51.214;6.962;2023-04-25T10:01:28;14.47;;;3.70;;
42972;SDS011;28610;51.214;6.962;2023-04-25T10:04:15;12.10;;;3.40;;
42972;SDS011;28610;51.214;6.962;2023-04-25T10:07:02;11.43;;;3.40;;
42972;SDS011;28610;51.214;6.962;2023-04-25T10:09:48;10.82;;;3.10;;
42972;SDS011;28610;51.214;6.962;2023-04-25T10:12:34;11.43;;;3.50;;
42972;SDS011;28610;51.214;6.962;2023-04-25T10:15:22;11.43;;;3.42;;
42972;SDS011;28610;51.214;6.962;2023-04-25T10:18:09;8.88;;;3.15;;
42972;SDS011;28610;51.214;6.962;2023-04-25T10:20:55;11.45;;;3.40;;
42972;SDS011;28610;51.214;6.962;2023-04-25T10:23:41;9.63;;;3.53;;
42972;SDS011;28610;51.214;6.962;2023-04-25T10:26:27;12.63;;;3.45;;
42972;SDS011;28610;51.214;6.962;2023-04-25T10:29:14;11.77;;;3.40;;
42972;SDS011;28610;51.214;6.962;2023-04-25T10:32:08;10.03;;;2.80;;
42972;SDS011;28610;51.214;6.962;2023-04-25T10:34:54;8.17;;;2.80;;
42972;SDS011;28610;51.214;6.962;2023-04-25T10:40:40;8.27;;;2.93;;
42972;SDS011;28610;51.214;6.962;2023-04-25T10:43:36;9.60;;;3.37;;
42972;SDS011;28610;51.214;6.962;2023-04-25T10:46:22;8.83;;;3.20;;
42972;SDS011;28610;51.214;6.962;2023-04-25T10:49:09;11.63;;;3.27;;
42972;SDS011;28610;51.214;6.962;2023-04-25T10:52:10;7.07;;;3.03;;
42972;SDS011;28610;51.214;6.962;2023-04-25T10:54:56;11.63;;;3.03;;
42972;SDS011;28610;51.214;6.962;2023-04-25T10:57:42;9.50;;;3.23;;
42972;SDS011;28610;51.214;6.962;2023-04-25T11:00:29;6.93;;;2.80;;
42972;SDS011;28610;51.214;6.962;2023-04-25T11:03:17;7.57;;;3.10;;
42972;SDS011;28610;51.214;6.962;2023-04-25T11:06:11;7.77;;;2.83;;
42972;SDS011;28610;51.214;6.962;2023-04-25T11:09:00;7.33;;;2.93;;
42972;SDS011;28610;51.214;6.962;2023-04-25T11:11:53;9.87;;;3.43;;
42972;SDS011;28610;51.214;6.962;2023-04-25T11:14:39;10.80;;;3.07;;
42972;SDS011;28610;51.214;6.962;2023-04-25T11:17:24;10.67;;;3.80;;
42972;SDS011;28610;51.214;6.962;2023-04-25T11:20:10;9.67;;;3.00;;
42972;SDS011;28610;51.214;6.962;2023-04-25T11:22:58;10.20;;;3.30;;
42972;SDS011;28610;51.214;6.962;2023-04-25T11:25:44;8.43;;;3.10;;
42972;SDS011;28610;51.214;6.962;2023-04-25T11:28:30;10.57;;;3.27;;
42972;SDS011;28610;51.214;6.962;2023-04-25T11:31:16;5.53;;;2.63;;
42972;SDS011;28610;51.214;6.962;2023-04-25T11:34:06;8.53;;;2.97;;
42972;SDS011;28610;51.214;6.962;2023-04-25T11:36:51;7.10;;;2.83;;
42972;SDS011;28610;51.214;6.962;2023-04-25T11:39:39;10.77;;;3.17;;
42972;SDS011;28610;51.214;6.962;2023-04-25T11:42:28;8.53;;;3.20;;
42972;SDS011;28610;51.214;6.962;2023-04-25T11:45:15;9.73;;;3.10;;
42972;SDS011;28610;51.214;6.962;2023-04-25T11:48:02;10.20;;;3.23;;
42972;SDS011;28610;51.214;6.962;2023-04-25T11:50:47;5.53;;;2.90;;
42972;SDS011;28610;51.214;6.962;2023-04-25T11:53:33;10.73;;;3.30;;
42972;SDS011;28610;51.214;6.962;2023-04-25T11:56:21;7.53;;;3.10;;
42972;SDS011;28610;51.214;6.962;2023-04-25T11:59:07;8.30;;;3.40;;
42972;SDS011;28610;51.214;6.962;2023-04-25T12:01:53;9.77;;;3.10;;
42972;SDS011;28610;51.214;6.962;2023-04-25T12:04:40;10.33;;;3.30;;
42972;SDS011;28610;51.214;6.962;2023-04-25T12:07:28;10.23;;;3.37;;
42972;SDS011;28610;51.214;6.962;2023-04-25T12:10:14;8.90;;;3.30;;
42972;SDS011;28610;51.214;6.962;2023-04-25T12:13:17;13.27;;;3.57;;
42972;SDS011;28610;51.214;6.962;2023-04-25T12:16:03;9.33;;;3.27;;
42972;SDS011;28610;51.214;6.962;2023-04-25T12:18:51;8.13;;;3.60;;
42972;SDS011;28610;51.214;6.962;2023-04-25T12:21:37;15.17;;;3.60;;
42972;SDS011;28610;51.214;6.962;2023-04-25T12:24:23;11.07;;;3.30;;
42972;SDS011;28610;51.214;6.962;2023-04-25T12:27:09;11.20;;;3.60;;
42972;SDS011;28610;51.214;6.962;2023-04-25T12:29:56;8.57;;;3.00;;
42972;SDS011;28610;51.214;6.962;2023-04-25T12:32:42;13.30;;;3.93;;
42972;SDS011;28610;51.214;6.962;2023-04-25T12:35:27;11.27;;;3.33;;
42972;SDS011;28610;51.214;6.962;2023-04-25T12:38:20;10.03;;;3.67;;
42972;SDS011;28610;51.214;6.962;2023-04-25T12:41:06;8.97;;;3.40;;
42972;SDS011;28610;51.214;6.962;2023-04-25T12:43:51;9.83;;;3.60;;
42972;SDS011;28610;51.214;6.962;2023-04-25T12:46:39;10.77;;;3.97;;
42972;SDS011;28610;51.214;6.962;2023-04-25T12:49:25;11.53;;;4.50;;
42972;SDS011;28610;51.214;6.962;2023-04-25T12:52:10;13.83;;;4.30;;
42972;SDS011;28610;51.214;6.962;2023-04-25T12:54:56;15.20;;;4.30;;
42972;SDS011;28610;51.214;6.962;2023-04-25T12:57:41;11.70;;;3.80;;
42972;SDS011;28610;51.214;6.962;2023-04-25T13:00:27;12.70;;;4.00;;
42972;SDS011;28610;51.214;6.962;2023-04-25T13:03:14;9.60;;;3.70;;
42972;SDS011;28610;51.214;6.962;2023-04-25T13:06:00;10.40;;;3.90;;
42972;SDS011;28610;51.214;6.962;2023-04-25T13:08:45;8.80;;;3.40;;
42972;SDS011;28610;51.214;6.962;2023-04-25T13:11:31;9.37;;;3.43;;
42972;SDS011;28610;51.214;6.962;2023-04-25T13:14:16;10.13;;;3.73;;
42972;SDS011;28610;51.214;6.962;2023-04-25T13:17:02;10.80;;;4.00;;
42972;SDS011;28610;51.214;6.962;2023-04-25T13:19:49;12.60;;;3.77;;
42972;SDS011;28610;51.214;6.962;2023-04-25T13:22:35;11.17;;;3.60;;
42972;SDS011;28610;51.214;6.962;2023-04-25T13:25:21;11.27;;;3.40;;
42972;SDS011;28610;51.214;6.962;2023-04-25T13:28:07;9.67;;;3.40;;
42972;SDS011;28610;51.214;6.962;2023-04-25T13:30:52;13.40;;;3.80;;
42972;SDS011;28610;51.214;6.962;2023-04-25T13:33:38;9.43;;;3.60;;
42972;SDS011;28610;51.214;6.962;2023-04-25T13:36:25;12.97;;;3.43;;
42972;SDS011;28610;51.214;6.962;2023-04-25T13:39:11;9.07;;;3.73;;
42972;SDS011;28610;51.214;6.962;2023-04-25T13:41:57;12.67;;;3.63;;
42972;SDS011;28610;51.214;6.962;2023-04-25T13:44:43;10.07;;;3.40;;
42972;SDS011;28610;51.214;6.962;2023-04-25T13:47:29;10.67;;;3.77;;
42972;SDS011;28610;51.214;6.962;2023-04-25T13:50:15;10.97;;;3.53;;
42972;SDS011;28610;51.214;6.962;2023-04-25T13:53:02;13.80;;;3.40;;
42972;SDS011;28610;51.214;6.962;2023-04-25T13:55:48;8.63;;;3.40;;
42972;SDS011;28610;51.214;6.962;2023-04-25T13:58:34;11.40;;;3.70;;
42972;SDS011;28610;51.214;6.962;2023-04-25T14:01:19;9.90;;;3.90;;
42972;SDS011;28610;51.214;6.962;2023-04-25T14:04:05;7.43;;;3.10;;
42972;SDS011;28610;51.214;6.962;2023-04-25T14:06:50;8.00;;;3.17;;
42972;SDS011;28610;51.214;6.962;2023-04-25T14:09:38;11.47;;;3.60;;
42972;SDS011;28610;51.214;6.962;2023-04-25T14:12:23;11.03;;;3.77;;
42972;SDS011;28610;51.214;6.962;2023-04-25T14:15:09;10.27;;;3.60;;
42972;SDS011;28610;51.214;6.962;2023-04-25T14:17:55;12.83;;;4.10;;
42972;SDS011;28610;51.214;6.962;2023-04-25T14:20:41;8.17;;;3.97;;
42972;SDS011;28610;51.214;6.962;2023-04-25T14:23:26;10.37;;;3.67;;
42972;SDS011;28610;51.214;6.962;2023-04-25T14:26:13;9.17;;;3.50;;
42972;SDS011;28610;51.214;6.962;2023-04-25T14:29:00;9.60;;;3.40;;
42972;SDS011;28610;51.214;6.962;2023-04-25T14:31:45;9.10;;;3.67;;
42972;SDS011;28610;51.214;6.962;2023-04-25T14:34:31;10.20;;;3.57;;
42972;SDS011;28610;51.214;6.962;2023-04-25T14:37:16;8.97;;;4.03;;
42972;SDS011;28610;51.214;6.962;2023-04-25T14:40:02;6.87;;;3.33;;
42972;SDS011;28610;51.214;6.962;2023-04-25T14:42:50;7.63;;;3.40;;
42972;SDS011;28610;51.214;6.962;2023-04-25T14:45:36;8.73;;;3.50;;
42972;SDS011;28610;51.214;6.962;2023-04-25T14:48:21;8.07;;;3.53;;
42972;SDS011;28610;51.214;6.962;2023-04-25T14:51:07;12.80;;;4.20;;
42972;SDS011;28610;51.214;6.962;2023-04-25T14:53:53;11.03;;;3.90;;
42972;SDS011;28610;51.214;6.962;2023-04-25T14:56:39;9.10;;;3.77;;
42972;SDS011;28610;51.214;6.962;2023-04-25T14:59:26;12.97;;;4.10;;
42972;SDS011;28610;51.214;6.962;2023-04-25T15:02:11;14.97;;;4.60;;
42972;SDS011;28610;51.214;6.962;2023-04-25T15:04:57;9.87;;;4.50;;
42972;SDS011;28610;51.214;6.962;2023-04-25T15:07:42;10.80;;;3.70;;
42972;SDS011;28610;51.214;6.962;2023-04-25T15:10:28;9.20;;;3.60;;
42972;SDS011;28610;51.214;6.962;2023-04-25T15:13:13;14.47;;;6.40;;
42972;SDS011;28610;51.214;6.962;2023-04-25T15:16:01;13.20;;;4.47;;
42972;SDS011;28610;51.214;6.962;2023-04-25T15:18:46;11.53;;;3.70;;
42972;SDS011;28610;51.214;6.962;2023-04-25T15:21:32;13.27;;;3.70;;
42972;SDS011;28610;51.214;6.962;2023-04-25T15:24:18;10.13;;;4.10;;
42972;SDS011;28610;51.214;6.962;2023-04-25T15:27:05;9.97;;;3.60;;
42972;SDS011;28610;51.214;6.962;2023-04-25T15:29:52;10.63;;;3.70;;
42972;SDS011;28610;51.214;6.962;2023-04-25T15:32:39;12.03;;;3.90;;
42972;SDS011;28610;51.214;6.962;2023-04-25T15:35:24;10.73;;;3.23;;
42972;SDS011;28610;51.214;6.962;2023-04-25T15:38:10;7.90;;;3.30;;
42972;SDS011;28610;51.214;6.962;2023-04-25T15:40:56;8.07;;;3.17;;
42972;SDS011;28610;51.214;6.962;2023-04-25T15:43:41;7.50;;;3.40;;
42972;SDS011;28610;51.214;6.962;2023-04-25T15:46:27;8.93;;;3.00;;
42972;SDS011;28610;51.214;6.962;2023-04-25T15:49:15;8.30;;;3.23;;
42972;SDS011;28610;51.214;6.962;2023-04-25T15:52:02;11.53;;;3.50;;
42972;SDS011;28610;51.214;6.962;2023-04-25T15:54:47;9.27;;;3.27;;
42972;SDS011;28610;51.214;6.962;2023-04-25T15:57:33;10.07;;;3.27;;
42972;SDS011;28610;51.214;6.962;2023-04-25T16:00:19;11.43;;;3.37;;
42972;SDS011;28610;51.214;6.962;2023-04-25T16:03:05;7.03;;;3.00;;
42972;SDS011;28610;51.214;6.962;2023-04-25T16:05:52;10.50;;;3.20;;
42972;SDS011;28610;51.214;6.962;2023-04-25T16:08:38;12.47;;;3.17;;
42972;SDS011;28610;51.214;6.962;2023-04-25T16:11:23;12.47;;;3.23;;
42972;SDS011;28610;51.214;6.962;2023-04-25T16:14:09;6.37;;;2.83;;
42972;SDS011;28610;51.214;6.962;2023-04-25T16:16:55;10.83;;;3.07;;
42972;SDS011;28610;51.214;6.962;2023-04-25T16:19:40;6.77;;;3.00;;
42972;SDS011;28610;51.214;6.962;2023-04-25T16:22:27;9.70;;;2.93;;
42972;SDS011;28610;51.214;6.962;2023-04-25T16:25:13;6.27;;;2.83;;
42972;SDS011;28610;51.214;6.962;2023-04-25T16:27:58;7.10;;;3.00;;
42972;SDS011;28610;51.214;6.962;2023-04-25T16:30:44;6.47;;;2.83;;